Time;durP1;ratioP1;P1;durP2;ratioP2;P2;SDS_P1;SDS_P2;PMS_P1;PMS_P2;Temp;Humidity;BMP_temperature;BMP_pressure;BME280_temperature;BME280_humidity;BME280_pressure;Samples;Min_cycle;Max_cycle;Signal;HPM_P1;HPM_P2
2022/04/24 00:02:22;;;;;;;16.90;12.35;;;13.80;56.00;;;;;;5094393;28;20082;-73
2022/04/24 00:04:48;;;;;;;15.30;11.38;;;13.80;55.90;;;;;;5094330;28;20090;-72
2022/04/24 00:07:14;;;;;;;12.70;9.70;;;13.80;55.70;;;;;;5094436;28;20424;-73
2022/04/24 00:09:40;;;;;;;14.57;10.45;;;13.70;55.30;;;;;;5094322;28;20065;-72
2022/04/24 00:12:07;;;;;;;11.63;8.82;;;13.70;55.30;;;;;;5093052;28;20027;-73
2022/04/24 00:14:33;;;;;;;16.15;10.90;;;13.60;55.40;;;;;;5094224;28;20024;-73
2022/04/24 00:16:59;;;;;;;16.67;11.40;;;13.60;55.70;;;;;;5094072;28;20468;-73
2022/04/24 00:19:24;;;;;;;16.27;12.00;;;13.50;56.10;;;;;;5094142;28;20028;-73
2022/04/24 00:21:50;;;;;;;15.48;11.32;;;13.60;56.60;;;;;;5092724;28;20032;-73
2022/04/24 00:24:16;;;;;;;14.73;11.07;;;13.50;56.80;;;;;;5094162;28;20492;-73
2022/04/24 00:26:42;;;;;;;16.70;11.82;;;13.50;56.90;;;;;;5092763;28;20031;-74
2022/04/24 00:29:08;;;;;;;14.80;11.30;;;13.50;57.10;;;;;;5094023;28;20020;-72
2022/04/24 00:31:34;;;;;;;14.27;10.85;;;13.50;57.10;;;;;;5093854;28;20134;-73
2022/04/24 00:34:00;;;;;;;16.00;10.52;;;13.50;57.20;;;;;;5093852;28;20102;-73
2022/04/24 00:36:26;;;;;;;14.18;10.32;;;13.50;57.10;;;;;;5093789;28;20035;-73
2022/04/24 00:38:52;;;;;;;13.63;10.27;;;13.50;57.20;;;;;;5092945;28;20164;-73
2022/04/24 00:41:17;;;;;;;12.77;9.38;;;13.50;57.20;;;;;;5093666;28;20063;-72
2022/04/24 00:43:53;;;;;;;15.57;10.73;;;13.60;57.20;;;;;;5093843;28;20031;-72
2022/04/24 00:46:36;;;;;;;13.05;9.60;;;13.50;57.30;;;;;;5093568;28;20051;-73
2022/04/24 00:49:02;;;;;;;15.63;9.18;;;13.60;57.30;;;;;;5092365;28;20107;-73
2022/04/24 00:51:29;;;;;;;15.60;9.52;;;13.60;57.30;;;;;;5093600;28;20081;-72
2022/04/24 00:53:56;;;;;;;14.57;9.90;;;13.60;57.30;;;;;;5093579;28;20021;-73
2022/04/24 00:56:29;;;;;;;13.73;9.65;;;13.60;57.30;;;;;;5093497;28;20473;-72
2022/04/24 00:58:56;;;;;;;12.75;9.32;;;13.70;57.20;;;;;;5093397;28;20052;-73
2022/04/24 01:01:22;;;;;;;14.52;9.27;;;13.70;57.20;;;;;;5093367;28;20119;-72
2022/04/24 01:03:48;;;;;;;13.23;9.88;;;13.70;57.10;;;;;;5093276;28;20104;-73
2022/04/24 01:06:14;;;;;;;12.40;9.45;;;13.70;57.20;;;;;;5093259;28;20500;-73
2022/04/24 01:08:40;;;;;;;13.13;9.85;;;13.70;57.20;;;;;;5093221;28;20494;-72
2022/04/24 01:11:06;;;;;;;16.25;9.50;;;13.70;57.10;;;;;;5093132;28;20055;-72
2022/04/24 01:13:31;;;;;;;11.45;8.50;;;13.70;57.10;;;;;;5093146;28;20428;-74
2022/04/24 01:15:57;;;;;;;13.32;9.45;;;13.70;57.00;;;;;;5093165;28;20024;-74
2022/04/24 01:18:25;;;;;;;13.77;9.43;;;13.70;56.90;;;;;;5092974;28;20051;-74
2022/04/24 01:20:51;;;;;;;12.23;8.50;;;13.70;56.90;;;;;;5092938;28;20465;-74
2022/04/24 01:23:17;;;;;;;13.10;9.15;;;13.60;56.80;;;;;;5093029;28;20027;-74
2022/04/24 01:25:42;;;;;;;13.13;9.13;;;13.60;56.70;;;;;;5092977;28;20048;-72
2022/04/24 01:28:09;;;;;;;11.57;8.27;;;13.60;56.80;;;;;;5092987;28;20024;-73
2022/04/24 01:30:35;;;;;;;11.60;8.77;;;13.50;56.70;;;;;;5092962;28;20024;-73
2022/04/24 01:33:01;;;;;;;10.18;8.02;;;13.50;56.70;;;;;;5091644;28;20020;-73
2022/04/24 01:35:27;;;;;;;10.23;7.72;;;13.50;56.60;;;;;;5092961;28;20024;-73
2022/04/24 01:37:56;;;;;;;11.75;9.13;;;13.40;56.50;;;;;;5092977;28;20020;-73
2022/04/24 01:40:22;;;;;;;10.43;8.40;;;13.40;56.90;;;;;;5092906;28;20024;-73
2022/04/24 01:42:48;;;;;;;11.23;8.27;;;13.40;57.80;;;;;;5092858;28;20029;-73
2022/04/24 01:45:14;;;;;;;9.77;7.72;;;13.40;57.40;;;;;;5093090;28;20020;-73
2022/04/24 01:47:39;;;;;;;10.48;7.60;;;13.40;57.60;;;;;;5092882;28;20035;-73
2022/04/24 01:50:06;;;;;;;11.20;8.32;;;13.40;57.70;;;;;;5094668;28;20027;-74
2022/04/24 01:52:31;;;;;;;10.32;7.50;;;13.40;57.90;;;;;;5095664;28;20024;-74
2022/04/24 01:54:57;;;;;;;10.73;7.85;;;13.50;58.00;;;;;;5096804;28;20493;-73
2022/04/24 01:57:23;;;;;;;12.27;7.75;;;13.50;58.00;;;;;;5096797;28;20074;-72
2022/04/24 01:59:48;;;;;;;10.45;7.78;;;13.60;57.90;;;;;;5096563;28;20044;-73
2022/04/24 02:02:14;;;;;;;9.82;7.72;;;13.70;57.80;;;;;;5096777;28;20035;-74
2022/04/24 02:04:40;;;;;;;10.95;7.90;;;13.70;57.60;;;;;;5097055;28;20017;-73
2022/04/24 02:07:06;;;;;;;10.27;7.55;;;13.80;57.50;;;;;;5096544;28;20024;-73
2022/04/24 02:09:33;;;;;;;10.27;7.60;;;13.90;57.20;;;;;;5096746;28;20103;-74
2022/04/24 02:11:59;;;;;;;10.18;8.13;;;13.90;57.00;;;;;;5096465;28;20020;-72
2022/04/24 02:14:25;;;;;;;12.68;8.23;;;13.90;56.90;;;;;;5096365;28;20035;-73
2022/04/24 02:16:51;;;;;;;10.07;7.80;;;14.00;56.90;;;;;;5096252;28;20024;-72
2022/04/24 02:19:17;;;;;;;10.88;7.40;;;14.00;56.80;;;;;;5106885;28;20041;-73
2022/04/24 02:21:42;;;;;;;10.85;8.23;;;14.00;56.80;;;;;;5102895;28;20028;-73
2022/04/24 02:24:08;;;;;;;11.57;7.88;;;14.00;56.80;;;;;;5115082;28;20028;-74
2022/04/24 02:26:34;;;;;;;10.77;7.85;;;14.00;56.70;;;;;;5103461;28;20031;-72
2022/04/24 02:29:00;;;;;;;9.85;7.80;;;14.00;56.60;;;;;;5099033;28;20473;-74
2022/04/24 02:31:25;;;;;;;10.60;7.80;;;14.00;56.60;;;;;;5116505;28;20023;-73
2022/04/24 02:33:51;;;;;;;9.07;7.70;;;13.90;56.60;;;;;;5116449;28;20027;-72
2022/04/24 02:36:17;;;;;;;9.52;7.65;;;13.90;56.60;;;;;;5116456;28;20419;-72
2022/04/24 02:38:43;;;;;;;9.15;7.07;;;13.80;56.60;;;;;;5114590;28;20032;-73
2022/04/24 02:41:09;;;;;;;10.07;8.13;;;13.90;56.60;;;;;;5116252;28;20084;-74
2022/04/24 02:43:35;;;;;;;9.18;7.22;;;13.80;56.60;;;;;;5111934;28;20107;-73
2022/04/24 02:46:00;;;;;;;7.75;6.55;;;13.80;56.60;;;;;;5095835;28;20028;-73
2022/04/24 02:48:27;;;;;;;9.20;7.30;;;13.80;56.60;;;;;;5095772;28;20020;-73
2022/04/24 02:50:53;;;;;;;8.52;6.63;;;13.80;56.70;;;;;;5095708;28;20016;-72
2022/04/24 02:53:19;;;;;;;7.50;6.10;;;13.80;56.70;;;;;;5095610;28;20385;-73
2022/04/24 02:55:45;;;;;;;7.68;6.35;;;13.80;56.80;;;;;;5095697;28;20028;-73
2022/04/24 02:58:11;;;;;;;7.28;5.93;;;13.80;56.70;;;;;;5095588;28;20020;-74
2022/04/24 03:00:41;;;;;;;8.80;6.47;;;13.80;56.70;;;;;;5094892;28;20044;-73
2022/04/24 03:03:10;;;;;;;11.98;7.72;;;13.80;56.70;;;;;;5095095;28;20020;-74
2022/04/24 03:05:36;;;;;;;19.48;10.13;;;13.80;56.70;;;;;;5095397;28;20378;-74
2022/04/24 03:08:02;;;;;;;13.88;10.18;;;13.80;56.70;;;;;;5095664;28;20023;-74
2022/04/24 03:10:29;;;;;;;12.48;8.07;;;13.90;56.80;;;;;;5095378;28;20024;-72
2022/04/24 03:12:55;;;;;;;9.60;7.38;;;13.90;56.80;;;;;;5095253;28;20124;-72
2022/04/24 03:15:21;;;;;;;8.85;7.07;;;13.90;56.70;;;;;;5095411;28;20106;-72
2022/04/24 03:17:49;;;;;;;8.55;6.93;;;13.90;56.70;;;;;;5095116;28;20016;-73
2022/04/24 03:20:15;;;;;;;8.13;6.85;;;13.90;56.70;;;;;;5095160;28;20045;-73
2022/04/24 03:22:40;;;;;;;9.38;6.43;;;13.90;56.60;;;;;;5093675;28;20367;-73
2022/04/24 03:25:09;;;;;;;6.90;5.55;;;13.90;56.50;;;;;;5095069;28;20046;-74
2022/04/24 03:27:35;;;;;;;7.00;4.95;;;13.90;56.30;;;;;;5095052;28;20416;-73
2022/04/24 03:30:02;;;;;;;7.07;5.10;;;14.00;56.10;;;;;;5095004;28;20472;-72
2022/04/24 03:32:32;;;;;;;7.10;5.68;;;14.00;56.10;;;;;;5094963;28;20032;-72
2022/04/24 03:34:58;;;;;;;7.40;5.80;;;13.90;56.10;;;;;;5094885;28;20024;-73
2022/04/24 03:37:24;;;;;;;8.32;6.35;;;13.90;56.20;;;;;;5094691;28;20027;-73
2022/04/24 03:39:49;;;;;;;6.10;5.20;;;13.90;56.30;;;;;;5094775;28;20028;-73
2022/04/24 03:42:15;;;;;;;7.20;5.35;;;13.90;56.20;;;;;;5094515;28;20106;-72
2022/04/24 03:44:41;;;;;;;6.28;4.88;;;13.80;56.20;;;;;;5094697;28;20377;-73
2022/04/24 03:47:07;;;;;;;6.07;4.78;;;13.80;56.20;;;;;;5094626;28;20059;-74
2022/04/24 03:49:33;;;;;;;6.70;5.47;;;13.80;56.20;;;;;;5094620;28;20099;-73
2022/04/24 03:51:59;;;;;;;6.82;5.45;;;13.80;56.40;;;;;;5094566;28;20062;-73
2022/04/24 03:54:25;;;;;;;7.57;5.78;;;13.80;56.50;;;;;;5094837;28;20048;-74
2022/04/24 03:56:51;;;;;;;7.47;5.63;;;13.80;56.60;;;;;;5105998;28;20039;-74
2022/04/24 03:59:16;;;;;;;5.90;4.95;;;13.80;56.60;;;;;;5113333;28;20047;-73
2022/04/24 04:01:42;;;;;;;10.77;5.95;;;13.80;56.50;;;;;;5114745;28;20481;-72
2022/04/24 04:04:08;;;;;;;6.40;5.20;;;13.80;56.60;;;;;;5114803;28;20016;-72
2022/04/24 04:06:34;;;;;;;6.97;5.28;;;13.80;56.60;;;;;;5114802;28;20068;-74
2022/04/24 04:09:00;;;;;;;5.57;4.43;;;13.90;56.70;;;;;;5114760;28;20505;-72
2022/04/24 04:11:26;;;;;;;9.85;5.15;;;13.90;56.70;;;;;;5097428;28;20366;-72
2022/04/24 04:13:52;;;;;;;5.57;4.57;;;13.90;56.60;;;;;;5094157;28;20093;-73
2022/04/24 04:16:18;;;;;;;5.40;3.92;;;14.00;56.60;;;;;;5094244;28;20048;-72
2022/04/24 04:18:43;;;;;;;4.85;3.03;;;14.00;56.60;;;;;;5094110;28;20032;-72
2022/04/24 04:21:09;;;;;;;5.63;4.50;;;14.10;56.40;;;;;;5094040;28;20039;-73
2022/04/24 04:23:35;;;;;;;4.90;4.13;;;14.10;56.50;;;;;;5094081;28;20020;-72
2022/04/24 04:26:01;;;;;;;5.68;4.25;;;14.20;56.30;;;;;;5092707;28;20031;-73
2022/04/24 04:28:27;;;;;;;6.65;4.40;;;14.20;56.10;;;;;;5093978;28;20020;-73
2022/04/24 04:30:53;;;;;;;5.72;4.60;;;14.30;56.00;;;;;;5107868;28;20465;-74
2022/04/24 04:33:18;;;;;;;5.95;4.05;;;14.30;55.90;;;;;;5114236;28;20024;-73
2022/04/24 04:35:45;;;;;;;4.75;3.72;;;14.40;55.80;;;;;;5114260;28;20053;-72
2022/04/24 04:38:11;;;;;;;4.88;3.45;;;14.40;55.80;;;;;;5114219;28;20020;-72
2022/04/24 04:40:37;;;;;;;6.93;4.13;;;14.50;55.70;;;;;;5112416;28;20022;-74
2022/04/24 04:43:02;;;;;;;15.80;8.68;;;14.60;55.70;;;;;;5092444;28;20020;-72
2022/04/24 04:45:28;;;;;;;19.50;11.40;;;14.60;55.60;;;;;;5093855;28;20480;-73
2022/04/24 04:47:54;;;;;;;18.90;9.88;;;14.60;55.70;;;;;;5093739;28;20023;-72
2022/04/24 04:50:20;;;;;;;20.92;10.77;;;14.70;55.60;;;;;;5093492;28;20085;-74
2022/04/24 04:52:46;;;;;;;20.48;10.32;;;14.70;55.60;;;;;;5092318;28;20451;-73
2022/04/24 04:55:11;;;;;;;20.30;10.25;;;14.70;55.50;;;;;;5093526;28;20020;-72
2022/04/24 04:57:37;;;;;;;19.42;10.75;;;14.70;55.60;;;;;;5092253;28;20020;-72
2022/04/24 05:00:05;;;;;;;19.77;9.52;;;14.80;55.60;;;;;;5093257;28;20505;-73
2022/04/24 05:02:34;;;;;;;17.95;10.07;;;14.80;55.50;;;;;;5093320;28;20055;-72
2022/04/24 05:05:00;;;;;;;19.10;9.18;;;14.80;55.50;;;;;;5093421;28;20149;-73
2022/04/24 05:07:26;;;;;;;20.23;10.18;;;14.70;55.40;;;;;;5093375;28;20040;-73
2022/04/24 05:09:52;;;;;;;22.17;10.45;;;14.70;55.40;;;;;;5093213;28;20384;-73
2022/04/24 05:12:17;;;;;;;18.38;10.48;;;14.70;55.50;;;;;;5093321;28;20481;-74
2022/04/24 05:14:43;;;;;;;20.60;11.88;;;14.70;55.50;;;;;;5093263;28;20020;-74
2022/04/24 05:17:09;;;;;;;17.45;10.00;;;14.70;55.60;;;;;;5093188;28;20026;-72
2022/04/24 05:19:34;;;;;;;17.92;10.60;;;14.70;55.60;;;;;;5093202;28;20066;-73
2022/04/24 05:22:00;;;;;;;17.65;9.32;;;14.70;55.70;;;;;;5093154;28;20034;-73
2022/04/24 05:24:26;;;;;;;27.30;10.45;;;14.70;55.70;;;;;;5092518;28;20031;-74
2022/04/24 05:26:52;;;;;;;21.38;10.85;;;14.70;55.70;;;;;;5093148;28;20043;-72
2022/04/24 05:29:17;;;;;;;21.77;11.13;;;14.60;55.60;;;;;;5093130;28;20085;-74
2022/04/24 05:31:43;;;;;;;21.80;13.05;;;14.60;55.60;;;;;;5093057;28;20056;-73
2022/04/24 05:34:09;;;;;;;23.90;12.27;;;14.60;55.70;;;;;;5093108;28;20085;-72
2022/04/24 05:36:35;;;;;;;14.38;9.20;;;14.60;56.00;;;;;;5092969;28;20020;-72
2022/04/24 05:39:01;;;;;;;20.55;8.73;;;14.60;56.00;;;;;;5093042;28;20024;-73
2022/04/24 05:41:26;;;;;;;12.73;7.30;;;14.50;55.90;;;;;;5093875;28;20053;-73
2022/04/24 05:43:52;;;;;;;11.60;7.57;;;14.50;56.00;;;;;;5091505;28;20106;-72
2022/04/24 05:46:18;;;;;;;9.00;6.68;;;14.50;56.10;;;;;;5094625;28;20024;-73
2022/04/24 05:48:43;;;;;;;9.63;6.32;;;14.60;56.10;;;;;;5094329;28;20025;-73
2022/04/24 05:51:09;;;;;;;9.65;5.93;;;14.60;56.10;;;;;;5094453;28;20032;-72
2022/04/24 05:53:35;;;;;;;10.10;7.05;;;14.60;56.00;;;;;;5093327;28;20025;-72
2022/04/24 05:56:01;;;;;;;15.90;6.57;;;14.60;56.00;;;;;;5091549;28;20081;-72
2022/04/24 05:58:26;;;;;;;7.07;5.32;;;14.70;56.00;;;;;;5092598;28;20028;-73
2022/04/24 06:00:52;;;;;;;7.45;5.72;;;14.60;56.00;;;;;;5092796;28;20064;-72
2022/04/24 06:03:18;;;;;;;7.47;5.25;;;14.70;55.90;;;;;;5092801;28;20021;-73
2022/04/24 06:05:45;;;;;;;8.95;4.93;;;14.70;55.80;;;;;;5102850;28;20038;-73
2022/04/24 06:08:11;;;;;;;6.88;4.90;;;14.70;55.70;;;;;;5113174;28;20027;-73
2022/04/24 06:10:37;;;;;;;6.75;4.70;;;14.70;55.70;;;;;;5113347;28;20081;-72
2022/04/24 06:13:03;;;;;;;5.63;4.13;;;14.70;55.70;;;;;;5111012;28;20023;-73
2022/04/24 06:15:28;;;;;;;6.50;4.70;;;14.70;55.70;;;;;;5109899;28;20404;-73
2022/04/24 06:17:57;;;;;;;7.72;4.35;;;14.70;55.70;;;;;;5112961;28;20049;-72
2022/04/24 06:20:25;;;;;;;8.00;4.95;;;14.70;55.80;;;;;;5111738;28;20016;-73
2022/04/24 06:22:52;;;;;;;10.05;6.10;;;14.70;55.80;;;;;;5112868;28;20032;-73
2022/04/24 06:25:23;;;;;;;11.70;7.03;;;14.70;55.90;;;;;;5112957;28;20373;-72
2022/04/24 06:27:50;;;;;;;18.00;9.85;;;14.80;56.10;;;;;;5111624;28;20107;-73
2022/04/24 06:30:17;;;;;;;15.13;8.20;;;14.80;56.10;;;;;;5111574;28;20035;-73
2022/04/24 06:32:44;;;;;;;13.57;7.25;;;14.90;56.30;;;;;;5112853;28;20027;-73
2022/04/24 06:35:13;;;;;;;15.60;9.38;;;15.00;56.50;;;;;;5111887;28;20025;-73
2022/04/24 06:37:42;;;;;;;14.05;9.57;;;15.20;56.70;;;;;;5114862;28;20027;-72
2022/04/24 06:40:10;;;;;;;14.68;10.43;;;15.30;56.50;;;;;;5094987;28;20030;-72
2022/04/24 06:42:50;;;;;;;16.45;9.50;;;15.60;56.20;;;;;;5096187;28;20024;-72
2022/04/24 06:45:27;;;;;;;13.57;8.55;;;15.80;55.70;;;;;;5096624;28;20016;-73
2022/04/24 06:47:58;;;;;;;17.02;10.20;;;16.00;55.70;;;;;;5095960;28;20020;-73
2022/04/24 06:50:25;;;;;;;14.88;10.52;;;16.20;55.30;;;;;;5095830;28;20089;-73
2022/04/24 06:52:58;;;;;;;18.92;10.68;;;16.40;55.00;;;;;;5095819;28;20027;-72
2022/04/24 06:55:25;;;;;;;15.65;10.73;;;16.60;54.60;;;;;;5099338;28;20020;-73
2022/04/24 06:57:51;;;;;;;14.02;11.00;;;16.80;54.60;;;;;;5095790;28;20444;-74
2022/04/24 07:00:21;;;;;;;14.07;11.38;;;17.00;54.80;;;;;;5095547;28;20071;-71
2022/04/24 07:02:50;;;;;;;16.25;11.77;;;17.20;54.30;;;;;;5095634;28;20039;-73
2022/04/24 07:05:18;;;;;;;16.90;11.43;;;17.50;53.80;;;;;;5095568;28;20354;-72
2022/04/24 07:07:44;;;;;;;12.68;10.35;;;17.70;53.50;;;;;;5095571;28;20381;-72
2022/04/24 07:10:10;;;;;;;19.95;12.25;;;17.90;53.10;;;;;;5095639;28;20024;-73
2022/04/24 07:12:51;;;;;;;17.00;11.00;;;18.10;52.30;;;;;;5095434;28;20028;-73
2022/04/24 07:15:18;;;;;;;14.60;8.63;;;18.30;51.40;;;;;;5107809;28;20024;-72
2022/04/24 07:17:45;;;;;;;11.80;9.07;;;18.40;50.60;;;;;;5115224;28;20507;-72
2022/04/24 07:20:12;;;;;;;16.65;9.05;;;18.40;50.10;;;;;;5115733;28;20024;-73
2022/04/24 07:22:50;;;;;;;16.25;10.10;;;18.50;50.10;;;;;;5115580;28;20065;-73
2022/04/24 07:25:17;;;;;;;17.15;8.52;;;18.50;49.80;;;;;;5115507;28;20023;-73
2022/04/24 07:27:43;;;;;;;12.80;8.20;;;18.50;49.40;;;;;;5115502;28;20023;-73
2022/04/24 07:30:13;;;;;;;9.30;6.60;;;18.50;49.60;;;;;;5115428;28;20020;-72
2022/04/24 07:32:45;;;;;;;11.38;7.78;;;18.60;49.80;;;;;;5107964;28;20366;-72
2022/04/24 07:35:14;;;;;;;12.98;8.48;;;18.70;49.40;;;;;;5094507;28;20031;-73
2022/04/24 07:37:40;;;;;;;26.92;9.25;;;18.70;49.10;;;;;;5094747;28;20103;-72
2022/04/24 07:40:11;;;;;;;12.10;9.05;;;18.60;48.80;;;;;;5094928;28;20484;-73
2022/04/24 07:42:45;;;;;;;11.05;8.70;;;18.60;48.90;;;;;;5094723;28;20497;-73
2022/04/24 07:45:15;;;;;;;12.52;8.73;;;18.50;48.80;;;;;;5098426;28;20160;-73
2022/04/24 07:47:41;;;;;;;11.45;8.00;;;18.60;49.10;;;;;;5094360;28;20020;-74
2022/04/24 07:50:07;;;;;;;11.23;7.30;;;18.60;49.10;;;;;;5094706;28;20027;-73
2022/04/24 07:52:33;;;;;;;12.65;7.57;;;18.60;49.10;;;;;;5093346;28;20026;-74
2022/04/24 07:54:59;;;;;;;11.50;7.38;;;18.70;48.80;;;;;;5094602;28;20444;-73
2022/04/24 07:57:25;;;;;;;14.40;8.38;;;18.80;48.80;;;;;;5093249;28;20107;-72
2022/04/24 07:59:50;;;;;;;10.35;7.82;;;18.90;48.50;;;;;;5094284;28;20078;-73
2022/04/24 08:02:16;;;;;;;9.82;6.72;;;18.90;48.30;;;;;;5094347;28;20383;-74
2022/04/24 08:04:42;;;;;;;9.68;7.25;;;18.90;48.70;;;;;;5094587;28;20461;-73
2022/04/24 08:07:07;;;;;;;12.93;8.18;;;19.00;48.80;;;;;;5094400;28;20032;-74
2022/04/24 08:09:33;;;;;;;13.98;7.38;;;19.00;48.40;;;;;;5094303;28;20085;-73
2022/04/24 08:11:59;;;;;;;12.98;7.97;;;19.00;48.50;;;;;;5094302;28;20473;-72
2022/04/24 08:14:25;;;;;;;11.75;8.00;;;19.00;48.40;;;;;;5094178;28;20448;-72
2022/04/24 08:16:50;;;;;;;10.98;8.00;;;19.00;48.40;;;;;;5094129;28;20024;-73
2022/04/24 08:19:16;;;;;;;15.02;8.10;;;19.00;48.30;;;;;;5100490;28;20059;-73
2022/04/24 08:21:42;;;;;;;13.13;7.45;;;19.00;48.40;;;;;;5114395;28;20115;-73
2022/04/24 08:24:07;;;;;;;15.05;9.82;;;19.10;48.40;;;;;;5114420;28;20023;-73
2022/04/24 08:26:33;;;;;;;8.45;6.88;;;19.30;48.50;;;;;;5114424;28;20023;-74
2022/04/24 08:28:59;;;;;;;10.57;7.60;;;19.50;48.50;;;;;;5105703;28;20020;-73
2022/04/24 08:31:24;;;;;;;15.27;9.27;;;19.80;47.80;;;;;;5092542;28;20023;-73
2022/04/24 08:33:50;;;;;;;10.43;7.95;;;20.00;47.40;;;;;;5094016;28;20380;-74
2022/04/24 08:36:16;;;;;;;13.82;9.50;;;20.10;46.50;;;;;;5093748;28;20039;-72
2022/04/24 08:38:41;;;;;;;10.95;7.70;;;20.20;46.20;;;;;;5093772;28;20031;-72
2022/04/24 08:41:09;;;;;;;12.52;8.00;;;20.20;46.30;;;;;;5093630;28;20024;-72
2022/04/24 08:43:35;;;;;;;13.45;10.25;;;20.20;46.20;;;;;;5093523;28;20062;-74
2022/04/24 08:46:02;;;;;;;11.25;8.25;;;20.30;46.10;;;;;;5095283;28;20110;-73
2022/04/24 08:48:28;;;;;;;12.57;9.43;;;20.30;46.30;;;;;;5096897;28;20020;-73
2022/04/24 08:50:58;;;;;;;17.88;9.93;;;20.40;46.30;;;;;;5108805;28;20038;-72
2022/04/24 08:53:28;;;;;;;14.40;9.70;;;20.30;46.70;;;;;;5113568;28;20058;-73
2022/04/24 08:55:54;;;;;;;14.48;11.20;;;20.30;46.60;;;;;;5113661;28;20549;-73
2022/04/24 08:58:20;;;;;;;17.92;11.88;;;20.30;46.90;;;;;;5113561;28;20024;-73
2022/04/24 09:00:46;;;;;;;16.60;11.10;;;20.30;47.00;;;;;;5112921;28;20076;-72
2022/04/24 09:03:12;;;;;;;14.55;11.63;;;20.10;47.00;;;;;;5113446;28;20016;-73
2022/04/24 09:05:37;;;;;;;13.77;11.02;;;20.10;47.30;;;;;;5110854;28;20035;-73
2022/04/24 09:08:12;;;;;;;14.73;11.43;;;20.10;47.40;;;;;;5101310;28;20042;-73
2022/04/24 09:10:56;;;;;;;13.65;11.38;;;20.00;47.40;;;;;;5098409;28;20015;-72
2022/04/24 09:13:28;;;;;;;14.55;11.98;;;19.90;47.50;;;;;;5100029;28;20027;-73
2022/04/24 09:15:59;;;;;;;14.30;10.27;;;19.90;47.80;;;;;;5111148;28;20055;-73
2022/04/24 09:18:39;;;;;;;15.65;12.05;;;19.90;47.90;;;;;;5105384;28;20351;-72
2022/04/24 09:21:05;;;;;;;14.05;11.63;;;19.90;48.00;;;;;;5098293;28;20073;-73
2022/04/24 09:23:37;;;;;;;14.55;11.07;;;20.00;48.10;;;;;;5109823;28;20028;-72
2022/04/24 09:26:03;;;;;;;15.13;11.75;;;20.10;48.20;;;;;;5113057;28;20376;-72
2022/04/24 09:28:40;;;;;;;13.18;10.13;;;20.10;47.00;;;;;;5113484;28;20044;-73
2022/04/24 09:31:07;;;;;;;15.60;11.02;;;20.00;46.50;;;;;;5102532;28;20027;-72
2022/04/24 09:33:36;;;;;;;14.80;10.20;;;20.00;46.30;;;;;;5101183;28;20020;-72
2022/04/24 09:36:02;;;;;;;14.27;10.45;;;20.00;46.30;;;;;;5091757;28;20505;-72
2022/04/24 09:38:28;;;;;;;25.23;10.57;;;19.90;46.70;;;;;;5092998;28;20137;-73
2022/04/24 09:40:54;;;;;;;16.25;9.80;;;19.90;46.40;;;;;;5093615;28;20034;-72
2022/04/24 09:43:20;;;;;;;15.30;11.25;;;19.90;46.40;;;;;;5110556;28;20091;-73
2022/04/24 09:45:55;;;;;;;14.55;10.95;;;19.90;46.40;;;;;;5113114;28;20042;-72
2022/04/24 09:48:23;;;;;;;15.38;10.55;;;19.80;46.40;;;;;;5103540;28;20031;-73
2022/04/24 09:50:50;;;;;;;12.68;9.52;;;19.90;46.20;;;;;;5111943;28;20119;-72
2022/04/24 09:53:19;;;;;;;16.15;12.10;;;19.90;46.40;;;;;;5109416;28;20020;-73
2022/04/24 09:55:45;;;;;;;21.48;12.80;;;19.90;46.00;;;;;;5112095;28;20050;-73
2022/04/24 09:58:15;;;;;;;17.20;11.48;;;19.80;46.30;;;;;;5113159;28;20016;-73
2022/04/24 10:00:41;;;;;;;19.42;11.60;;;19.90;46.70;;;;;;5106957;28;20043;-73
2022/04/24 10:03:09;;;;;;;13.27;10.52;;;19.90;46.50;;;;;;5111500;28;20035;-73
2022/04/24 10:05:38;;;;;;;17.20;11.80;;;19.90;46.70;;;;;;5112777;28;20137;-72
2022/04/24 10:08:06;;;;;;;17.38;11.40;;;19.90;46.60;;;;;;5109592;28;20019;-73
2022/04/24 10:10:32;;;;;;;13.90;10.50;;;20.00;46.60;;;;;;5113973;28;20026;-72
2022/04/24 10:13:01;;;;;;;13.82;11.02;;;19.90;46.20;;;;;;5116874;28;20334;-73
2022/04/24 10:15:29;;;;;;;10.73;8.82;;;19.90;45.80;;;;;;5113700;28;20023;-73
2022/04/24 10:18:04;;;;;;;13.75;11.32;;;19.90;45.80;;;;;;5110724;27;20055;-72
2022/04/24 10:20:54;;;;;;;15.20;12.25;;;19.90;45.60;;;;;;5108650;28;20050;-73
2022/04/24 10:23:32;;;;;;;13.85;10.35;;;19.90;45.80;;;;;;5096279;28;20077;-72
2022/04/24 10:25:58;;;;;;;13.40;10.10;;;20.00;46.10;;;;;;5098702;27;20454;-73
2022/04/24 10:28:37;;;;;;;14.10;9.95;;;20.10;45.90;;;;;;5109644;28;20028;-72
2022/04/24 10:31:04;;;;;;;15.50;10.30;;;20.10;45.90;;;;;;5096244;28;20020;-73
2022/04/24 10:33:32;;;;;;;12.60;9.68;;;20.20;45.30;;;;;;5111338;28;20035;-74
2022/04/24 10:36:19;;;;;;;14.32;10.18;;;20.20;45.30;;;;;;5115129;28;20118;-74
2022/04/24 10:38:57;;;;;;;11.15;8.68;;;20.30;45.40;;;;;;5116476;27;20016;-74
2022/04/24 10:41:30;;;;;;;9.50;8.13;;;20.30;45.30;;;;;;5116320;28;20051;-74
2022/04/24 10:44:10;;;;;;;13.48;8.20;;;20.40;45.30;;;;;;5115435;28;20015;-74
2022/04/24 10:46:42;;;;;;;8.93;6.43;;;20.40;44.40;;;;;;5094744;28;20031;-73
2022/04/24 10:49:12;;;;;;;9.55;7.60;;;20.50;44.40;;;;;;5095898;28;20478;-73
2022/04/24 10:51:41;;;;;;;9.65;6.95;;;20.50;44.20;;;;;;5095937;28;20028;-73
2022/04/24 10:54:15;;;;;;;6.15;4.80;;;20.50;43.60;;;;;;5095776;28;20103;-74
2022/04/24 10:56:50;;;;;;;9.20;5.93;;;20.50;43.50;;;;;;5098584;28;20034;-73
2022/04/24 10:59:21;;;;;;;6.03;4.10;;;20.60;43.10;;;;;;5095325;28;20040;-74
2022/04/24 11:01:52;;;;;;;5.30;3.95;;;20.60;42.90;;;;;;5095560;28;20028;-74
2022/04/24 11:04:19;;;;;;;7.78;3.75;;;20.70;41.80;;;;;;5095619;28;20044;-73
2022/04/24 11:06:55;;;;;;;4.82;3.72;;;20.70;41.20;;;;;;5095487;28;20047;-73
2022/04/24 11:09:22;;;;;;;5.60;4.20;;;20.70;40.90;;;;;;5094223;28;20047;-74
2022/04/24 11:12:06;;;;;;;5.43;3.60;;;20.80;40.80;;;;;;5095655;28;20505;-74
2022/04/24 11:14:33;;;;;;;9.40;3.90;;;20.80;40.60;;;;;;5095531;28;20035;-74
2022/04/24 11:17:02;;;;;;;7.28;3.58;;;20.80;40.20;;;;;;5095415;28;20032;-74
2022/04/24 11:19:30;;;;;;;4.90;3.83;;;20.80;40.10;;;;;;5094035;28;20055;-74
2022/04/24 11:22:01;;;;;;;3.65;3.15;;;20.80;39.90;;;;;;5094537;28;20027;-74
2022/04/24 11:24:28;;;;;;;4.68;3.25;;;20.80;39.60;;;;;;5094461;28;20020;-74
2022/04/24 11:27:02;;;;;;;5.25;3.15;;;20.90;39.60;;;;;;5095029;28;20020;-74
2022/04/24 11:29:28;;;;;;;3.80;2.85;;;21.00;39.60;;;;;;5093908;28;20020;-74
2022/04/24 11:31:55;;;;;;;6.88;4.00;;;20.90;39.80;;;;;;5093716;28;20020;-74
2022/04/24 11:34:25;;;;;;;4.25;2.90;;;21.00;38.10;;;;;;5095056;28;20028;-73
2022/04/24 11:36:56;;;;;;;3.22;2.35;;;21.00;36.90;;;;;;5094888;28;20052;-73
2022/04/24 11:39:21;;;;;;;4.22;2.63;;;21.00;37.10;;;;;;5093695;28;20028;-72
2022/04/24 11:41:47;;;;;;;4.53;3.15;;;21.00;36.90;;;;;;5094753;28;20024;-73
2022/04/24 11:52:37;;;;;;;3.78;2.83;;;21.20;37.40;;;;;;5094999;28;20142;-73
2022/04/24 11:55:08;;;;;;;3.33;2.45;;;21.20;36.90;;;;;;5094560;28;20047;-72
2022/04/24 11:57:34;;;;;;;3.53;2.67;;;21.30;36.80;;;;;;5093300;28;20081;-73
2022/04/24 12:00:03;;;;;;;8.98;2.40;;;21.50;36.40;;;;;;5094350;28;20051;-72
2022/04/24 12:02:29;;;;;;;3.42;2.83;;;21.60;35.90;;;;;;5094434;28;20024;-72
2022/04/24 12:04:59;;;;;;;3.38;2.60;;;21.80;35.50;;;;;;5094351;28;20051;-73
2022/04/24 12:07:32;;;;;;;4.30;3.10;;;22.00;35.30;;;;;;5094368;28;20065;-73
2022/04/24 12:10:01;;;;;;;2.77;2.13;;;22.10;34.40;;;;;;5094395;28;20052;-73
2022/04/24 12:12:27;;;;;;;5.45;2.70;;;22.20;34.40;;;;;;5092925;28;20058;-73
2022/04/24 12:14:53;;;;;;;3.30;2.33;;;22.40;34.20;;;;;;5094163;28;20103;-73
2022/04/24 12:17:20;;;;;;;2.58;2.20;;;22.50;34.10;;;;;;5094067;28;20038;-73
2022/04/24 12:19:52;;;;;;;6.60;2.65;;;22.60;34.20;;;;;;5092784;28;20161;-72
2022/04/24 12:22:29;;;;;;;3.13;2.35;;;22.80;32.50;;;;;;5093951;28;20020;-73
2022/04/24 12:25:10;;;;;;;3.35;2.47;;;22.90;33.60;;;;;;5094106;28;20023;-73
2022/04/24 12:27:36;;;;;;;2.72;2.33;;;23.20;32.70;;;;;;5094016;28;20059;-73
2022/04/24 12:30:07;;;;;;;2.65;2.25;;;23.30;32.40;;;;;;5093802;28;20023;-73
2022/04/24 12:32:36;;;;;;;2.85;2.42;;;23.40;31.70;;;;;;5093848;28;20500;-73
2022/04/24 12:35:02;;;;;;;8.68;3.00;;;23.50;31.60;;;;;;5093782;28;20481;-73
2022/04/24 12:37:33;;;;;;;5.82;2.38;;;23.60;31.60;;;;;;5093792;28;20073;-74
2022/04/24 12:40:00;;;;;;;2.95;2.45;;;23.60;31.40;;;;;;5093788;28;20028;-73
2022/04/24 12:42:26;;;;;;;3.72;2.17;;;23.60;31.40;;;;;;5092379;28;20024;-74
2022/04/24 12:44:53;;;;;;;4.40;2.28;;;23.60;31.20;;;;;;5093725;28;20099;-73
2022/04/24 12:47:20;;;;;;;3.30;2.35;;;23.50;30.90;;;;;;5092618;28;20428;-73
2022/04/24 12:49:46;;;;;;;1.92;1.73;;;23.40;30.80;;;;;;5093646;28;20023;-73